Погода Коншасна неделю

Сан-Паулу, Бразилия

21 - 27 июля
  • 21июля
    Сегодня
    +12°
    +28°
    Ясно и безоблачно
    ВремяПогодаТемператураВлажностьДавлениеВетер, м/сВероятность осадков
    00:00Ясно и безоблачно+14°C92 %723 мм3.5 м/с5 %
    03:00Ясно и безоблачно+11°C94 %722 мм1.9 м/с5 %
    06:00Ясно и безоблачно+10°C92 %722 мм1.9 м/с5 %
    09:00Ясно и безоблачно+14°C80 %724 мм1.0 м/с5 %
    12:00Ясно и безоблачно+21°C57 %724 мм0.9 м/с5 %
    15:00Ясно и безоблачно+27°C41 %722 мм0.2 м/с5 %
    18:00Ясно и безоблачно+23°C56 %721 мм2.5 м/с5 %
    21:00Ясно и безоблачно+18°C75 %722 мм2.2 м/с5 %
  • 22июля
    Понедельник
    +10°
    +28°
    Ясно и безоблачно
    ВремяПогодаТемператураВлажностьДавлениеВетер, м/сВероятность осадков
    00:00Ясно и безоблачно+15°C89 %722 мм2.2 м/с5 %
    03:00Ясно и безоблачно+13°C97 %722 мм1.4 м/с5 %
    06:00Облачно с прояснениями+13°C100 %722 мм1.7 м/с5 %
    09:00Пасмурно, сплошная облачность+13°C96 %724 мм1.2 м/с5 %
    12:00Ясно и безоблачно+23°C56 %724 мм0.6 м/с5 %
    15:00Ясно и безоблачно+28°C34 %723 мм1.0 м/с5 %
    18:00Ясно и безоблачно+22°C56 %722 мм2.6 м/с5 %
    21:00Ясно и безоблачно+19°C66 %723 мм4.4 м/с5 %
  • 23июля
    Вторник
    +11°
    +28°
    Практически безоблачно
    ВремяПогодаТемператураВлажностьДавлениеВетер, м/сВероятность осадков
    00:00Ясно и безоблачно+17°C69 %724 мм3.1 м/с5 %
    03:00Ясно и безоблачно+13°C82 %723 мм2.1 м/с5 %
    06:00Ясно и безоблачно+11°C85 %723 мм2.2 м/с5 %
    09:00Ясно и безоблачно+16°C58 %725 мм1.4 м/с5 %
    12:00Практически безоблачно+24°C34 %725 мм1.8 м/с5 %
    15:00Практически безоблачно+28°C33 %723 мм1.1 м/с5 %
    18:00Ясно и безоблачно+23°C51 %723 мм2.5 м/с5 %
    21:00Небольшая облачность+19°C78 %723 мм4.1 м/с5 %
  • 24июля
    Среда
    +12°
    +29°
    Практически безоблачно
    ВремяПогодаТемператураВлажностьДавлениеВетер, м/сВероятность осадков
    00:00Облачно с прояснениями+15°C87 %723 мм2.2 м/с5 %
    03:00Облачно с прояснениями+13°C85 %722 мм1.6 м/с5 %
    06:00Практически безоблачно+12°C82 %722 мм1.8 м/с5 %
    09:00Небольшая облачность+16°C68 %724 мм1.3 м/с5 %
    12:00Практически безоблачно+24°C46 %725 мм1.4 м/с5 %
    15:00Практически безоблачно+28°C32 %723 мм0.9 м/с5 %
    18:00Небольшая облачность+24°C46 %722 мм2.1 м/с5 %
    21:00Облачно с прояснениями+20°C54 %722 мм2.3 м/с5 %
Мы используем cookies
Соглашаюсь